Time;durP1;ratioP1;P1;durP2;ratioP2;P2;SDS_P1;SDS_P2;PMS_P1;PMS_P2;Temp;Humidity;BMP_temperature;BMP_pressure;BME280_temperature;BME280_humidity;BME280_pressure;Samples;Min_cycle;Max_cycle;Signal;HPM_P1;HPM_P2
2022/06/01 00:01:50;;;;;;;2.30;1.90;;;;;;;;;;4964448;28;20183;-86
2022/06/01 00:04:55;;;;;;;3.90;1.67;;;;;;;;;;4944291;29;20187;-85
2022/06/01 00:07:59;;;;;;;3.07;1.70;;;;;;;;;;5008066;23;20234;-86
2022/06/01 00:11:04;;;;;;;3.80;1.80;;;;;;;;;;4964094;28;20183;-86
2022/06/01 00:14:08;;;;;;;2.10;1.90;;;;;;;;;;4971333;28;20645;-86
2022/06/01 00:17:12;;;;;;;3.57;2.10;;;;;;;;;;4983208;28;20218;-86
2022/06/01 00:20:17;;;;;;;3.90;2.17;;;;;;;;;;4953008;28;20179;-86
2022/06/01 00:23:21;;;;;;;2.37;2.00;;;;;;;;;;4952915;28;20183;-86
2022/06/01 00:26:26;;;;;;;4.80;1.80;;;;;;;;;;4954202;28;20175;-86
2022/06/01 00:29:30;;;;;;;2.43;1.60;;;;;;;;;;4974249;28;20199;-86
2022/06/01 00:32:34;;;;;;;3.03;1.73;;;;;;;;;;4977650;28;20205;-86
2022/06/01 00:35:38;;;;;;;2.27;1.73;;;;;;;;;;4982793;28;20218;-86
2022/06/01 00:38:42;;;;;;;2.90;1.70;;;;;;;;;;4970810;28;20190;-86
2022/06/01 00:41:47;;;;;;;2.50;1.50;;;;;;;;;;4982999;28;20506;-85
2022/06/01 00:44:51;;;;;;;1.97;1.77;;;;;;;;;;4957167;28;20186;-86
2022/06/01 00:47:56;;;;;;;4.57;1.87;;;;;;;;;;4964358;28;20231;-85
2022/06/01 00:51:00;;;;;;;2.10;1.80;;;;;;;;;;4982679;28;20523;-87
2022/06/01 00:54:05;;;;;;;3.37;1.67;;;;;;;;;;4955993;28;20191;-88
2022/06/01 00:57:13;;;;;;;2.80;1.60;;;;;;;;;;4956238;28;20217;-87
2022/06/01 01:00:25;;;;;;;2.40;1.67;;;;;;;;;;4974521;28;20187;-87
2022/06/01 01:03:35;;;;;;;3.97;1.90;;;;;;;;;;4963426;28;20183;-87
2022/06/01 01:06:41;;;;;;;2.93;1.53;;;;;;;;;;4952281;28;20222;-87
2022/06/01 01:09:45;;;;;;;1.83;1.70;;;;;;;;;;4967697;28;20201;-87
2022/06/01 01:12:56;;;;;;;2.30;1.90;;;;;;;;;;4993154;28;20193;-87
2022/06/01 01:16:00;;;;;;;2.37;1.83;;;;;;;;;;4970762;28;20222;-87
2022/06/01 01:19:19;;;;;;;1.80;1.70;;;;;;;;;;4973847;28;20195;-87
2022/06/01 01:22:50;;;;;;;2.20;2.00;;;;;;;;;;4993135;28;20202;-87
2022/06/01 01:25:54;;;;;;;3.00;1.90;;;;;;;;;;4993140;28;20182;-87
2022/06/01 01:28:58;;;;;;;5.77;2.00;;;;;;;;;;4967867;28;20657;-87
2022/06/01 01:32:05;;;;;;;2.00;1.77;;;;;;;;;;4992946;28;20193;-87
2022/06/01 01:35:10;;;;;;;3.50;1.70;;;;;;;;;;4971237;28;20210;-87
2022/06/01 01:38:31;;;;;;;3.97;1.50;;;;;;;;;;4965611;28;20840;-87
2022/06/01 01:41:46;;;;;;;5.40;1.67;;;;;;;;;;4993245;28;20194;-87
2022/06/01 01:44:57;;;;;;;2.93;1.73;;;;;;;;;;4973531;28;20195;-87
2022/06/01 01:48:02;;;;;;;1.93;1.83;;;;;;;;;;4969041;28;20213;-87
2022/06/01 01:51:06;;;;;;;2.47;1.73;;;;;;;;;;4982252;28;20182;-87
2022/06/01 01:54:31;;;;;;;2.53;1.80;;;;;;;;;;4962734;28;20187;-87
2022/06/01 01:57:50;;;;;;;2.33;2.10;;;;;;;;;;4965319;28;20562;-86
2022/06/01 02:01:08;;;;;;;3.13;2.13;;;;;;;;;;4985475;28;20194;-87
2022/06/01 02:07:53;;;;;;;2.27;2.03;;;;;;;;;;4984264;28;20230;-87
2022/06/01 02:14:42;;;;;;;4.00;2.20;;;;;;;;;;4985369;28;20182;-86
2022/06/01 02:17:50;;;;;;;2.97;2.17;;;;;;;;;;4995983;28;20217;-87
2022/06/01 02:21:01;;;;;;;3.80;2.20;;;;;;;;;;4966134;28;20522;-86
2022/06/01 02:24:06;;;;;;;3.00;2.20;;;;;;;;;;4996039;28;20186;-86
2022/06/01 02:27:11;;;;;;;5.60;2.73;;;;;;;;;;4973698;28;20214;-86
2022/06/01 02:30:31;;;;;;;3.47;2.43;;;;;;;;;;4973982;28;20178;-86
2022/06/01 02:33:36;;;;;;;3.03;2.20;;;;;;;;;;4955482;28;20184;-86
2022/06/01 02:36:43;;;;;;;3.80;2.30;;;;;;;;;;4984886;28;20238;-86
2022/06/01 02:39:52;;;;;;;3.07;2.30;;;;;;;;;;4984874;28;20182;-87
2022/06/01 02:42:56;;;;;;;3.03;2.33;;;;;;;;;;4974219;28;20637;-86
2022/06/01 02:46:00;;;;;;;3.77;2.27;;;;;;;;;;4979730;28;20194;-86
2022/06/01 02:49:04;;;;;;;3.67;2.03;;;;;;;;;;4985299;28;20186;-86
2022/06/01 02:52:08;;;;;;;3.33;2.67;;;;;;;;;;4985204;28;20178;-86
2022/06/01 02:55:15;;;;;;;6.77;2.57;;;;;;;;;;4973540;28;20217;-86
2022/06/01 02:58:19;;;;;;;2.73;2.40;;;;;;;;;;4965188;28;20226;-86
2022/06/01 03:01:23;;;;;;;3.87;2.70;;;;;;;;;;4969924;28;20190;-86
2022/06/01 03:04:27;;;;;;;3.10;2.10;;;;;;;;;;4984590;28;20182;-86
2022/06/01 03:07:32;;;;;;;2.43;2.23;;;;;;;;;;4995121;28;20233;-86
2022/06/01 03:10:36;;;;;;;2.90;2.47;;;;;;;;;;4965375;28;20191;-86
2022/06/01 03:13:41;;;;;;;4.40;2.90;;;;;;;;;;4965119;28;20183;-86
2022/06/01 03:16:45;;;;;;;2.70;2.27;;;;;;;;;;4993291;28;20229;-86
2022/06/01 03:19:49;;;;;;;5.00;2.50;;;;;;;;;;4975783;28;20199;-86
2022/06/01 03:22:54;;;;;;;2.13;1.93;;;;;;;;;;4958894;28;20648;-86
2022/06/01 03:25:58;;;;;;;4.50;2.30;;;;;;;;;;4984023;28;20175;-86
2022/06/01 03:29:04;;;;;;;2.97;2.47;;;;;;;;;;4984329;28;20178;-86
2022/06/01 03:32:08;;;;;;;2.87;2.30;;;;;;;;;;4984242;28;20198;-86
2022/06/01 03:35:15;;;;;;;3.43;2.70;;;;;;;;;;4995674;28;20221;-86
2022/06/01 03:38:19;;;;;;;2.63;2.30;;;;;;;;;;4962650;28;20226;-85
2022/06/01 03:41:27;;;;;;;3.70;2.77;;;;;;;;;;4983547;28;20182;-86
2022/06/01 03:47:55;;;;;;;2.80;2.50;;;;;;;;;;4983613;28;20218;-86
2022/06/01 03:51:00;;;;;;;4.20;2.77;;;;;;;;;;4961769;28;20186;-86
2022/06/01 03:54:06;;;;;;;2.83;2.33;;;;;;;;;;4994711;28;20206;-86
2022/06/01 03:57:12;;;;;;;3.40;2.90;;;;;;;;;;4983623;28;20229;-86
2022/06/01 04:00:23;;;;;;;5.93;2.80;;;;;;;;;;4963158;28;20191;-86
2022/06/01 04:03:28;;;;;;;4.43;2.73;;;;;;;;;;4953412;28;20179;-86
2022/06/01 04:06:32;;;;;;;3.17;2.43;;;;;;;;;;4965506;28;20569;-85
2022/06/01 04:09:36;;;;;;;3.17;2.50;;;;;;;;;;4994148;28;20194;-86
2022/06/01 04:12:41;;;;;;;3.33;2.97;;;;;;;;;;4983140;28;20182;-86
2022/06/01 04:15:45;;;;;;;2.63;2.37;;;;;;;;;;4972046;28;20210;-86
2022/06/01 04:18:49;;;;;;;5.67;2.57;;;;;;;;;;4982795;28;20186;-86
2022/06/01 04:21:54;;;;;;;3.07;2.50;;;;;;;;;;4977529;28;20186;-86
2022/06/01 04:24:58;;;;;;;2.63;2.40;;;;;;;;;;4983291;28;20182;-86
2022/06/01 04:28:03;;;;;;;5.53;3.13;;;;;;;;;;4977031;28;20217;-86
2022/06/01 04:31:07;;;;;;;4.27;3.07;;;;;;;;;;4971804;28;20637;-86
2022/06/01 04:34:12;;;;;;;3.53;3.20;;;;;;;;;;4982660;28;20194;-86
2022/06/01 04:37:16;;;;;;;3.87;3.40;;;;;;;;;;4974436;28;20231;-86
2022/06/01 04:40:22;;;;;;;3.30;3.00;;;;;;;;;;4959779;28;20190;-86
2022/06/01 04:43:26;;;;;;;4.20;3.30;;;;;;;;;;4982965;28;20182;-86
2022/06/01 04:46:30;;;;;;;3.80;3.10;;;;;;;;;;4982289;28;20209;-86
2022/06/01 04:49:34;;;;;;;6.07;3.60;;;;;;;;;;4974415;28;20199;-86
2022/06/01 04:52:39;;;;;;;5.73;3.70;;;;;;;;;;4974573;28;20183;-86
2022/06/01 04:55:45;;;;;;;4.77;3.50;;;;;;;;;;4963513;28;20207;-86
2022/06/01 04:58:49;;;;;;;6.93;3.50;;;;;;;;;;4971204;28;20194;-86
2022/06/01 05:01:53;;;;;;;5.20;3.43;;;;;;;;;;4993181;28;20190;-86
2022/06/01 05:04:57;;;;;;;3.10;2.77;;;;;;;;;;4971204;28;20182;-86
2022/06/01 05:08:01;;;;;;;3.57;3.27;;;;;;;;;;4992751;28;20696;-86
2022/06/01 05:11:06;;;;;;;4.37;3.27;;;;;;;;;;4982193;28;20205;-86
2022/06/01 05:14:10;;;;;;;4.07;3.37;;;;;;;;;;4971041;28;20197;-86
2022/06/01 05:17:14;;;;;;;5.33;3.80;;;;;;;;;;4951702;28;20724;-86
2022/06/01 05:20:18;;;;;;;5.70;3.80;;;;;;;;;;4970289;28;20186;-87
2022/06/01 05:23:24;;;;;;;4.77;3.60;;;;;;;;;;4971234;28;20179;-86
2022/06/01 05:26:28;;;;;;;5.63;3.17;;;;;;;;;;4973455;28;20522;-86
2022/06/01 05:29:34;;;;;;;5.80;2.93;;;;;;;;;;4963968;28;20203;-85
2022/06/01 05:32:37;;;;;;;4.50;3.33;;;;;;;;;;4968349;28;20191;-86
2022/06/01 05:35:42;;;;;;;4.33;3.03;;;;;;;;;;4981520;28;20186;-88
2022/06/01 05:38:46;;;;;;;5.67;3.07;;;;;;;;;;4985553;28;20193;-85
2022/06/01 05:41:50;;;;;;;5.40;3.70;;;;;;;;;;4985444;28;20198;-85
2022/06/01 05:44:54;;;;;;;5.10;3.60;;;;;;;;;;4985850;28;20186;-85
2022/06/01 05:47:58;;;;;;;6.40;3.40;;;;;;;;;;4973770;28;20683;-85
2022/06/01 05:51:02;;;;;;;4.13;3.03;;;;;;;;;;4985921;28;20178;-87
2022/06/01 05:54:06;;;;;;;4.97;3.43;;;;;;;;;;4974626;28;20182;-86
2022/06/01 05:57:11;;;;;;;4.43;3.23;;;;;;;;;;4985088;28;20233;-86
2022/06/01 06:00:16;;;;;;;4.83;2.97;;;;;;;;;;4996272;28;20197;-86
2022/06/01 06:03:26;;;;;;;3.97;3.20;;;;;;;;;;4996396;28;20197;-86
2022/06/01 06:06:31;;;;;;;3.43;2.93;;;;;;;;;;4965830;28;20226;-86
2022/06/01 06:09:35;;;;;;;3.67;2.83;;;;;;;;;;4995913;23;20242;-85
2022/06/01 06:12:39;;;;;;;4.47;2.90;;;;;;;;;;4976824;28;20191;-85
2022/06/01 06:15:43;;;;;;;5.47;2.90;;;;;;;;;;4965847;28;20183;-84
2022/06/01 06:18:47;;;;;;;5.20;2.97;;;;;;;;;;4954615;29;20214;-84
2022/06/01 06:21:51;;;;;;;4.43;3.20;;;;;;;;;;4946284;29;20184;-84
2022/06/01 06:24:55;;;;;;;3.30;2.70;;;;;;;;;;4946231;29;20199;-85
2022/06/01 06:27:59;;;;;;;4.77;2.93;;;;;;;;;;4946502;28;20219;-85
2022/06/01 06:31:04;;;;;;;3.20;2.57;;;;;;;;;;4927365;29;20188;-85
2022/06/01 06:34:08;;;;;;;4.63;3.27;;;;;;;;;;4953975;29;20653;-84
2022/06/01 06:37:12;;;;;;;5.73;2.50;;;;;;;;;;4931753;29;20224;-85
2022/06/01 06:40:16;;;;;;;3.03;2.23;;;;;;;;;;4942702;29;20180;-85
2022/06/01 06:43:25;;;;;;;4.43;2.60;;;;;;;;;;4937867;29;20187;-84
2022/06/01 06:46:30;;;;;;;4.90;2.40;;;;;;;;;;4945820;29;20188;-86
2022/06/01 06:49:34;;;;;;;2.53;2.33;;;;;;;;;;4946182;29;20559;-85
2022/06/01 06:52:39;;;;;;;5.00;2.93;;;;;;;;;;4956721;29;20662;-86
2022/06/01 06:55:46;;;;;;;2.97;2.13;;;;;;;;;;4957091;29;20198;-86
2022/06/01 06:58:50;;;;;;;4.07;2.60;;;;;;;;;;4957322;29;20215;-87
2022/06/01 07:01:54;;;;;;;4.73;2.53;;;;;;;;;;4956681;29;20191;-85
2022/06/01 07:04:58;;;;;;;3.33;2.40;;;;;;;;;;4926755;29;20188;-86
2022/06/01 07:08:05;;;;;;;3.80;2.30;;;;;;;;;;4935504;28;20218;-86
2022/06/01 07:11:10;;;;;;;2.77;2.40;;;;;;;;;;4955882;29;20187;-83
2022/06/01 07:14:14;;;;;;;5.30;3.23;;;;;;;;;;4947117;29;20646;-83
2022/06/01 07:17:18;;;;;;;3.90;2.30;;;;;;;;;;4957405;29;20215;-83
2022/06/01 07:20:22;;;;;;;3.00;2.33;;;;;;;;;;4956760;28;20195;-83
2022/06/01 07:23:27;;;;;;;2.67;2.00;;;;;;;;;;4957172;29;20558;-84
2022/06/01 07:26:37;;;;;;;4.37;1.83;;;;;;;;;;4966094;28;20179;-83
2022/06/01 07:29:41;;;;;;;2.47;2.00;;;;;;;;;;4956413;28;20560;-83
2022/06/01 07:32:49;;;;;;;4.37;2.00;;;;;;;;;;4939448;29;20192;-84
2022/06/01 07:35:53;;;;;;;3.57;1.73;;;;;;;;;;4945113;29;20196;-84
2022/06/01 07:45:45;;;;;;;14.40;2.60;;;;;;;;;;4955460;29;20184;-89
2022/06/01 07:48:49;;;;;;;2.83;1.70;;;;;;;;;;4945173;29;20257;-88
2022/06/01 07:51:54;;;;;;;2.50;1.60;;;;;;;;;;4967458;28;20201;-88
2022/06/01 07:55:00;;;;;;;3.03;1.63;;;;;;;;;;4943805;29;20202;-87
2022/06/01 07:58:04;;;;;;;6.00;1.67;;;;;;;;;;4955821;29;20239;-88
2022/06/01 08:01:08;;;;;;;2.53;1.57;;;;;;;;;;4955674;28;20542;-87
2022/06/01 08:04:13;;;;;;;3.57;1.57;;;;;;;;;;4944289;29;20652;-88
2022/06/01 08:07:17;;;;;;;1.53;1.10;;;;;;;;;;4940110;29;20191;-87
2022/06/01 08:10:21;;;;;;;6.15;1.35;;;;;;;;;;4955866;29;20176;-87
2022/06/01 08:13:26;;;;;;;2.97;1.60;;;;;;;;;;4955334;29;20193;-87
2022/06/01 08:16:30;;;;;;;6.68;1.48;;;;;;;;;;4955237;29;20194;-86
2022/06/01 08:19:34;;;;;;;3.78;1.48;;;;;;;;;;4955384;29;20566;-87
2022/06/01 08:22:40;;;;;;;15.80;4.18;;;;;;;;;;4945504;28;20190;-88
2022/06/01 08:25:45;;;;;;;4.82;1.85;;;;;;;;;;4943196;29;20200;-87
2022/06/01 08:28:50;;;;;;;6.10;2.33;;;;;;;;;;4925491;29;20225;-87
2022/06/01 08:31:54;;;;;;;3.13;1.30;;;;;;;;;;4937072;29;20178;-88
2022/06/01 08:35:00;;;;;;;2.88;1.60;;;;;;;;;;4925736;29;20191;-89
2022/06/01 08:38:06;;;;;;;2.97;1.20;;;;;;;;;;4941420;29;20222;-88
2022/06/01 08:41:13;;;;;;;4.25;1.45;;;;;;;;;;4955060;29;20192;-88
2022/06/01 08:44:31;;;;;;;3.03;1.42;;;;;;;;;;4945656;29;20188;-88
2022/06/01 08:47:38;;;;;;;3.92;1.00;;;;;;;;;;4945977;29;20180;-88
2022/06/01 08:51:13;;;;;;;5.55;1.55;;;;;;;;;;4956174;29;20204;-89
2022/06/01 08:54:46;;;;;;;;;;;;;;;;;;;;;
2022/06/01 08:58:33;;;;;;;3.70;1.30;;;;;;;;;;4945207;28;20575;-89
2022/06/01 09:02:25;;;;;;;4.13;1.40;;;;;;;;;;4955271;29;20183;-89
2022/06/01 09:06:28;;;;;;;4.82;1.20;;;;;;;;;;4947394;29;20185;-88
2022/06/01 09:09:38;;;;;;;3.20;0.90;;;;;;;;;;4925239;29;20235;-89
2022/06/01 09:12:49;;;;;;;1.70;1.02;;;;;;;;;;4931533;29;20201;-89
2022/06/01 09:15:59;;;;;;;3.80;1.00;;;;;;;;;;4955271;29;20188;-89
2022/06/01 09:19:07;;;;;;;3.03;0.98;;;;;;;;;;4943583;29;20223;-89
2022/06/01 09:22:39;;;;;;;3.30;1.00;;;;;;;;;;4940642;29;20186;-89
2022/06/01 09:25:54;;;;;;;2.95;1.17;;;;;;;;;;4926904;29;20195;-89
2022/06/01 09:29:00;;;;;;;1.70;1.00;;;;;;;;;;4947529;29;20225;-89
2022/06/01 09:32:07;;;;;;;2.13;0.90;;;;;;;;;;4930708;29;20188;-89
2022/06/01 09:35:14;;;;;;;2.22;1.20;;;;;;;;;;4925791;29;20195;-88
2022/06/01 09:38:34;;;;;;;1.55;0.82;;;;;;;;;;4946612;28;20238;-89
2022/06/01 09:41:41;;;;;;;2.05;1.13;;;;;;;;;;4943682;29;20194;-89
2022/06/01 09:44:55;;;;;;;2.25;1.15;;;;;;;;;;4955017;28;20194;-88
2022/06/01 09:48:13;;;;;;;5.10;1.50;;;;;;;;;;4935414;29;20558;-89
2022/06/01 09:51:25;;;;;;;1.85;1.10;;;;;;;;;;4954861;29;20559;-88
2022/06/01 09:54:33;;;;;;;4.57;1.48;;;;;;;;;;4956794;29;20222;-88
2022/06/01 09:57:38;;;;;;;1.60;1.17;;;;;;;;;;4946076;29;20231;-88
2022/06/01 10:07:41;;;;;;;4.75;1.08;;;;;;;;;;4954308;29;20192;-89
2022/06/01 10:10:58;;;;;;;2.05;0.98;;;;;;;;;;4954829;29;20186;-88
2022/06/01 10:14:11;;;;;;;2.88;1.13;;;;;;;;;;4954795;28;20187;-88
2022/06/01 10:17:27;;;;;;;1.40;0.90;;;;;;;;;;4954431;28;20212;-89
2022/06/01 10:20:52;;;;;;;1.15;0.70;;;;;;;;;;4969866;28;20194;-87
2022/06/01 10:24:13;;;;;;;2.50;0.90;;;;;;;;;;4928185;29;20187;-87
2022/06/01 10:27:21;;;;;;;2.95;1.05;;;;;;;;;;4957803;29;20184;-87
2022/06/01 10:30:30;;;;;;;2.65;1.00;;;;;;;;;;4955457;29;20193;-85
2022/06/01 10:33:42;;;;;;;2.65;1.20;;;;;;;;;;4924995;29;20188;-88
2022/06/01 10:37:09;;;;;;;1.50;0.95;;;;;;;;;;4945949;29;20199;-88
2022/06/01 10:40:26;;;;;;;2.85;1.00;;;;;;;;;;4957266;29;20211;-88
2022/06/01 10:43:50;;;;;;;1.98;1.25;;;;;;;;;;4968633;28;20190;-88
2022/06/01 10:47:03;;;;;;;4.95;1.00;;;;;;;;;;4957015;29;20656;-88
2022/06/01 10:50:20;;;;;;;2.15;0.90;;;;;;;;;;4957065;29;20202;-87
2022/06/01 10:53:34;;;;;;;1.52;1.00;;;;;;;;;;4957244;29;20528;-86
2022/06/01 10:56:39;;;;;;;3.55;0.93;;;;;;;;;;4940796;29;20197;-87
2022/06/01 10:59:44;;;;;;;2.65;0.90;;;;;;;;;;4946194;29;20689;-86
2022/06/01 11:03:14;;;;;;;6.28;1.08;;;;;;;;;;4945721;29;20192;-86
2022/06/01 11:06:31;;;;;;;1.55;1.02;;;;;;;;;;4937937;29;20186;-86
2022/06/01 11:10:28;;;;;;;1.63;1.05;;;;;;;;;;4937240;29;20226;-89
2022/06/01 11:14:03;;;;;;;5.03;1.20;;;;;;;;;;4948703;28;20192;-87
2022/06/01 11:17:23;;;;;;;2.47;1.00;;;;;;;;;;4946518;29;20189;-86
2022/06/01 11:21:13;;;;;;;1.50;1.10;;;;;;;;;;4946694;29;20190;-87
2022/06/01 11:24:28;;;;;;;4.13;0.98;;;;;;;;;;4967990;28;20203;-87
2022/06/01 11:28:00;;;;;;;1.63;1.00;;;;;;;;;;4942346;28;20189;-87
2022/06/01 11:31:18;;;;;;;2.60;1.13;;;;;;;;;;4938238;29;20195;-86
2022/06/01 11:34:29;;;;;;;1.80;0.90;;;;;;;;;;4959571;29;20201;-86
2022/06/01 11:37:40;;;;;;;2.85;1.13;;;;;;;;;;4958807;28;20198;-86
2022/06/01 11:41:07;;;;;;;2.75;1.20;;;;;;;;;;4960516;29;20204;-87
2022/06/01 11:44:18;;;;;;;1.55;1.10;;;;;;;;;;4949027;29;20190;-87
2022/06/01 11:47:24;;;;;;;3.00;1.25;;;;;;;;;;4960347;29;20185;-88
2022/06/01 11:50:56;;;;;;;5.57;1.10;;;;;;;;;;4960602;29;20634;-86
2022/06/01 11:54:06;;;;;;;2.65;1.20;;;;;;;;;;4928097;29;20192;-86
2022/06/01 11:57:38;;;;;;;2.20;1.00;;;;;;;;;;4953402;28;20234;-87
2022/06/01 12:00:48;;;;;;;3.58;1.08;;;;;;;;;;4957267;29;20234;-87
2022/06/01 12:04:23;;;;;;;3.85;1.50;;;;;;;;;;4948100;29;20197;-86
2022/06/01 12:07:35;;;;;;;1.60;1.00;;;;;;;;;;4945986;29;20206;-87
2022/06/01 12:10:58;;;;;;;3.40;1.40;;;;;;;;;;5021162;23;20230;-85
2022/06/01 12:14:26;;;;;;;3.90;1.15;;;;;;;;;;5011434;28;20196;-84
2022/06/01 12:17:36;;;;;;;4.68;1.30;;;;;;;;;;4998460;28;20203;-84
2022/06/01 12:20:40;;;;;;;5.95;1.27;;;;;;;;;;4986805;28;20219;-85
2022/06/01 12:28:31;;;;;;;5.47;1.08;;;;;;;;;;4983085;28;20639;-91
2022/06/01 12:31:39;;;;;;;1.42;1.00;;;;;;;;;;4994228;28;20177;-87
2022/06/01 12:34:50;;;;;;;1.15;1.00;;;;;;;;;;4983577;28;20180;-88
2022/06/01 12:38:31;;;;;;;4.10;1.10;;;;;;;;;;4984067;28;20217;-87
2022/06/01 12:41:39;;;;;;;1.95;0.80;;;;;;;;;;4971578;28;20187;-86
2022/06/01 12:44:47;;;;;;;2.03;1.10;;;;;;;;;;4982838;28;20524;-85
2022/06/01 12:48:16;;;;;;;3.38;1.05;;;;;;;;;;4972171;28;20520;-85
2022/06/01 12:51:20;;;;;;;4.97;1.30;;;;;;;;;;4994118;28;20184;-85
2022/06/01 12:54:32;;;;;;;1.10;1.00;;;;;;;;;;4982891;28;20183;-85
2022/06/01 12:57:37;;;;;;;1.95;1.00;;;;;;;;;;4982943;28;20188;-85
2022/06/01 13:00:51;;;;;;;1.67;1.02;;;;;;;;;;4971647;28;20224;-85
2022/06/01 13:03:58;;;;;;;2.88;0.95;;;;;;;;;;4982745;28;20514;-85
2022/06/01 13:07:02;;;;;;;1.98;0.90;;;;;;;;;;4993868;28;20177;-85
2022/06/01 13:10:30;;;;;;;1.35;0.90;;;;;;;;;;4971446;28;20218;-85
2022/06/01 13:13:34;;;;;;;4.00;1.00;;;;;;;;;;4994487;28;20179;-85
2022/06/01 13:16:45;;;;;;;1.67;1.35;;;;;;;;;;4972025;28;20203;-86
2022/06/01 13:19:58;;;;;;;4.60;1.40;;;;;;;;;;4983154;28;20231;-85
2022/06/01 13:23:15;;;;;;;4.32;1.30;;;;;;;;;;4971481;28;20183;-85
2022/06/01 13:26:28;;;;;;;2.08;1.15;;;;;;;;;;4981873;28;20196;-85
2022/06/01 13:29:44;;;;;;;1.92;1.33;;;;;;;;;;4982417;28;20210;-85
2022/06/01 13:32:50;;;;;;;2.00;1.25;;;;;;;;;;4993502;28;20189;-85
2022/06/01 13:36:04;;;;;;;1.85;1.17;;;;;;;;;;4971139;28;20181;-85
2022/06/01 13:39:12;;;;;;;2.30;1.00;;;;;;;;;;4970609;28;20208;-85
2022/06/01 13:42:38;;;;;;;4.72;1.10;;;;;;;;;;4982261;28;20672;-85
2022/06/01 13:45:58;;;;;;;2.27;1.40;;;;;;;;;;4971008;28;20550;-85
2022/06/01 13:49:07;;;;;;;2.83;1.00;;;;;;;;;;4993167;28;20176;-84
2022/06/01 13:52:14;;;;;;;4.40;1.40;;;;;;;;;;4971587;28;20183;-85
2022/06/01 13:55:28;;;;;;;1.90;1.10;;;;;;;;;;4974434;28;20175;-85
2022/06/01 13:58:37;;;;;;;1.23;1.13;;;;;;;;;;4985769;28;20209;-85
2022/06/01 14:01:55;;;;;;;3.73;0.90;;;;;;;;;;4985550;28;20182;-85
2022/06/01 14:05:20;;;;;;;2.13;1.30;;;;;;;;;;4974376;28;20187;-84
2022/06/01 14:08:27;;;;;;;2.07;1.10;;;;;;;;;;4974501;28;20181;-84
2022/06/01 14:11:32;;;;;;;4.27;1.70;;;;;;;;;;4985706;28;20200;-85
2022/06/01 14:14:39;;;;;;;3.17;1.13;;;;;;;;;;4985602;28;20181;-84
2022/06/01 14:17:44;;;;;;;2.37;1.30;;;;;;;;;;4985372;28;20184;-84
2022/06/01 14:20:50;;;;;;;3.23;1.30;;;;;;;;;;4996203;28;20211;-85
2022/06/01 14:23:54;;;;;;;1.83;1.33;;;;;;;;;;4974064;28;20193;-85
2022/06/01 14:30:20;;;;;;;3.20;1.20;;;;;;;;;;4985003;28;20221;-84
2022/06/01 14:33:25;;;;;;;1.57;1.30;;;;;;;;;;4985276;28;20185;-84
2022/06/01 14:36:30;;;;;;;3.50;1.20;;;;;;;;;;4984981;28;20189;-84
2022/06/01 14:39:34;;;;;;;3.90;1.17;;;;;;;;;;4985001;28;20231;-84
2022/06/01 14:42:38;;;;;;;3.47;1.27;;;;;;;;;;4985119;28;20184;-84
2022/06/01 14:45:43;;;;;;;2.23;1.17;;;;;;;;;;4984660;28;20634;-84
2022/06/01 14:48:47;;;;;;;3.70;1.17;;;;;;;;;;4996060;28;20182;-84
2022/06/01 14:51:55;;;;;;;1.60;1.33;;;;;;;;;;4973378;28;20669;-84
2022/06/01 14:55:01;;;;;;;1.87;1.00;;;;;;;;;;4984294;28;20198;-84
2022/06/01 14:58:05;;;;;;;2.33;1.33;;;;;;;;;;4995946;28;20186;-84
2022/06/01 15:01:13;;;;;;;2.50;0.77;;;;;;;;;;4995615;28;20700;-84
2022/06/01 15:04:19;;;;;;;1.27;0.80;;;;;;;;;;4983864;28;20186;-84
2022/06/01 15:07:23;;;;;;;2.00;1.00;;;;;;;;;;4972983;28;20202;-84
2022/06/01 15:10:27;;;;;;;2.03;0.90;;;;;;;;;;4983922;28;20225;-84
2022/06/01 15:13:31;;;;;;;2.53;0.70;;;;;;;;;;4984524;28;20186;-84
2022/06/01 15:16:41;;;;;;;1.80;0.87;;;;;;;;;;4984211;28;20186;-84
2022/06/01 15:19:45;;;;;;;3.33;0.80;;;;;;;;;;4983767;28;20578;-83
2022/06/01 15:22:49;;;;;;;1.87;0.90;;;;;;;;;;4984164;28;20530;-84
2022/06/01 15:25:54;;;;;;;2.10;0.70;;;;;;;;;;4973062;28;20633;-83
2022/06/01 15:28:58;;;;;;;1.73;1.07;;;;;;;;;;4973246;28;20617;-84
2022/06/01 15:42:12;;;;;;;2.30;1.10;;;;;;;;;;4983774;28;20183;-83
2022/06/01 15:45:17;;;;;;;1.10;1.00;;;;;;;;;;4983418;28;20197;-83
2022/06/01 15:48:22;;;;;;;2.10;1.20;;;;;;;;;;4983756;28;20641;-83
2022/06/01 15:51:27;;;;;;;3.80;1.10;;;;;;;;;;4983522;28;20194;-84
2022/06/01 15:54:32;;;;;;;1.57;1.10;;;;;;;;;;4994433;28;20182;-84
2022/06/01 15:57:36;;;;;;;4.53;1.17;;;;;;;;;;4983742;28;20178;-84
2022/06/01 16:00:42;;;;;;;2.27;1.20;;;;;;;;;;4983337;28;20700;-84
2022/06/01 16:03:48;;;;;;;1.83;1.30;;;;;;;;;;4983741;28;20174;-84
2022/06/01 16:06:52;;;;;;;2.37;1.50;;;;;;;;;;4994476;28;20191;-84
2022/06/01 16:09:56;;;;;;;1.83;1.30;;;;;;;;;;4994047;28;20225;-84
2022/06/01 16:13:01;;;;;;;3.33;1.50;;;;;;;;;;4994672;28;20178;-84
2022/06/01 16:16:06;;;;;;;2.30;1.47;;;;;;;;;;4993504;28;20186;-83
2022/06/01 16:19:11;;;;;;;3.40;1.87;;;;;;;;;;4982855;28;20226;-84
2022/06/01 16:22:21;;;;;;;2.13;1.50;;;;;;;;;;4982965;28;20178;-84
2022/06/01 16:25:25;;;;;;;2.57;1.60;;;;;;;;;;4993824;28;20183;-84
2022/06/01 16:28:29;;;;;;;4.63;1.60;;;;;;;;;;4994223;28;20182;-84
2022/06/01 16:31:38;;;;;;;3.93;1.53;;;;;;;;;;4982609;28;20182;-84
2022/06/01 16:34:42;;;;;;;4.93;1.80;;;;;;;;;;4972075;28;20198;-84
2022/06/01 16:37:47;;;;;;;2.17;1.60;;;;;;;;;;5004936;28;20182;-84
2022/06/01 16:40:54;;;;;;;1.70;1.60;;;;;;;;;;4982565;28;20233;-84
2022/06/01 16:43:59;;;;;;;3.83;1.60;;;;;;;;;;4982727;28;20178;-84
2022/06/01 16:47:03;;;;;;;3.80;1.73;;;;;;;;;;4993879;28;20186;-84
2022/06/01 16:50:08;;;;;;;2.03;1.63;;;;;;;;;;4994166;28;20213;-85
2022/06/01 16:53:12;;;;;;;10.07;1.70;;;;;;;;;;4983063;28;20186;-83
2022/06/01 16:56:16;;;;;;;5.20;1.80;;;;;;;;;;4988928;28;20561;-82
2022/06/01 16:59:21;;;;;;;2.37;1.70;;;;;;;;;;4993406;28;20684;-82
2022/06/01 17:02:24;;;;;;;4.90;2.00;;;;;;;;;;4993223;28;20186;-82
2022/06/01 17:05:29;;;;;;;2.67;1.87;;;;;;;;;;5004599;28;20186;-82
2022/06/01 17:08:35;;;;;;;2.70;1.93;;;;;;;;;;4993616;28;20511;-83
2022/06/01 17:11:41;;;;;;;5.13;2.00;;;;;;;;;;4982138;28;20179;-82
2022/06/01 17:14:45;;;;;;;5.13;2.10;;;;;;;;;;4993066;28;20186;-82
2022/06/01 17:17:53;;;;;;;3.63;2.00;;;;;;;;;;4993598;28;20178;-82
2022/06/01 17:20:57;;;;;;;2.10;1.83;;;;;;;;;;4982354;28;20218;-82
2022/06/01 17:24:03;;;;;;;4.03;2.53;;;;;;;;;;4993689;28;20178;-83
2022/06/01 17:27:07;;;;;;;3.03;2.13;;;;;;;;;;5005170;28;20190;-83
2022/06/01 17:30:12;;;;;;;3.50;2.60;;;;;;;;;;4989684;28;20221;-85
2022/06/01 17:33:24;;;;;;;2.93;2.33;;;;;;;;;;4975891;28;20190;-81
2022/06/01 17:36:28;;;;;;;4.23;2.30;;;;;;;;;;4974857;28;20190;-81
2022/06/01 17:39:32;;;;;;;3.30;2.17;;;;;;;;;;4974649;28;20225;-82
2022/06/01 17:42:37;;;;;;;5.53;2.27;;;;;;;;;;4986066;28;20621;-82
2022/06/01 17:45:41;;;;;;;3.87;2.23;;;;;;;;;;4986245;28;20186;-81
2022/06/01 17:48:46;;;;;;;2.83;2.20;;;;;;;;;;4985700;28;20183;-81
2022/06/01 17:51:50;;;;;;;4.20;2.30;;;;;;;;;;4985384;28;20629;-81
2022/06/01 17:54:54;;;;;;;3.20;2.50;;;;;;;;;;4996710;28;20182;-81
2022/06/01 17:57:58;;;;;;;2.47;2.10;;;;;;;;;;4985732;28;20198;-81
2022/06/01 18:01:02;;;;;;;5.13;2.40;;;;;;;;;;4974229;28;20226;-81
2022/06/01 18:04:07;;;;;;;3.13;2.10;;;;;;;;;;4985611;28;20657;-82
2022/06/01 18:07:12;;;;;;;3.70;2.30;;;;;;;;;;4996765;28;20198;-82
2022/06/01 18:10:17;;;;;;;2.50;2.30;;;;;;;;;;5002891;23;20237;-85
2022/06/01 18:13:22;;;;;;;5.10;2.30;;;;;;;;;;4996662;28;20524;-85
2022/06/01 18:16:30;;;;;;;2.50;2.30;;;;;;;;;;4977110;28;20187;-84
2022/06/01 18:19:36;;;;;;;2.30;1.90;;;;;;;;;;4987157;28;20194;-84
2022/06/01 18:22:40;;;;;;;2.80;2.00;;;;;;;;;;4991142;28;20194;-85
2022/06/01 18:25:48;;;;;;;3.77;1.83;;;;;;;;;;5005326;28;20190;-84
2022/06/01 18:28:53;;;;;;;6.03;2.40;;;;;;;;;;5007537;28;20202;-85
2022/06/01 18:31:57;;;;;;;3.13;1.93;;;;;;;;;;4986609;28;20174;-85
2022/06/01 18:35:03;;;;;;;2.33;1.80;;;;;;;;;;5000539;28;20189;-85
2022/06/01 18:38:08;;;;;;;2.53;2.10;;;;;;;;;;4996534;28;20518;-85
2022/06/01 18:41:14;;;;;;;2.93;2.20;;;;;;;;;;4985499;28;20234;-85
2022/06/01 18:44:19;;;;;;;5.87;2.40;;;;;;;;;;4985416;28;20182;-85
2022/06/01 18:47:23;;;;;;;2.23;2.00;;;;;;;;;;4985850;28;20521;-86
2022/06/01 18:50:28;;;;;;;4.20;2.10;;;;;;;;;;4986162;28;20672;-85
2022/06/01 18:53:32;;;;;;;3.53;2.20;;;;;;;;;;5001524;28;20202;-85
2022/06/01 18:56:38;;;;;;;4.03;2.43;;;;;;;;;;5011486;28;20186;-85
2022/06/01 19:03:05;;;;;;;2.50;2.10;;;;;;;;;;4996301;28;20194;-85
2022/06/01 19:06:13;;;;;;;4.30;2.57;;;;;;;;;;4986062;28;20186;-85
2022/06/01 19:09:18;;;;;;;3.10;2.57;;;;;;;;;;4985204;28;20586;-84
2022/06/01 19:12:21;;;;;;;5.67;2.40;;;;;;;;;;4996276;28;20174;-85
2022/06/01 19:15:26;;;;;;;2.80;2.47;;;;;;;;;;5003629;28;20285;-86
2022/06/01 19:18:31;;;;;;;2.67;2.10;;;;;;;;;;4992017;28;20189;-86
2022/06/01 19:21:39;;;;;;;3.13;2.10;;;;;;;;;;5015149;28;20565;-87
2022/06/01 19:24:43;;;;;;;4.60;2.60;;;;;;;;;;4986247;28;20202;-85
2022/06/01 19:27:48;;;;;;;2.43;2.13;;;;;;;;;;5016605;28;20194;-86
2022/06/01 19:30:52;;;;;;;4.43;2.40;;;;;;;;;;5010884;28;20214;-85
2022/06/01 19:33:57;;;;;;;2.83;2.07;;;;;;;;;;4996522;28;20197;-86
2022/06/01 19:44:05;;;;;;;4.00;2.40;;;;;;;;;;5004522;28;20644;-87